createdAt,value
2023-03-30T00:03:56.769Z,13.27
2023-03-30T00:08:59.451Z,13.26
2023-03-30T00:14:01.441Z,13.30
2023-03-30T00:19:03.292Z,13.30
2023-03-30T00:24:05.207Z,13.36
2023-03-30T00:29:07.435Z,13.41
2023-03-30T00:34:09.707Z,13.44
2023-03-30T00:39:11.481Z,13.45
2023-03-30T00:45:11.118Z,13.47
2023-03-30T00:50:13.497Z,13.46
2023-03-30T00:55:16.732Z,13.43
2023-03-30T01:00:19.784Z,13.45
2023-03-30T01:05:24.224Z,13.43
2023-03-30T01:10:26.280Z,13.42
2023-03-30T01:15:35.436Z,13.43
2023-03-30T01:20:57.815Z,13.42
2023-03-30T01:26:44.138Z,13.53
2023-03-30T01:38:07.873Z,13.57
2023-03-30T01:43:15.652Z,13.46
2023-03-30T01:48:23.851Z,13.31
2023-03-30T01:53:46.681Z,13.26
2023-03-30T01:58:53.868Z,13.22
2023-03-30T02:03:59.128Z,13.21
2023-03-30T02:09:01.402Z,13.19
2023-03-30T02:14:05.608Z,13.15
2023-03-30T02:19:07.864Z,13.09
2023-03-30T02:24:19.370Z,13.00
2023-03-30T02:29:23.162Z,13.03
2023-03-30T02:34:43.550Z,12.89
2023-03-30T02:39:51.260Z,12.73
2023-03-30T02:45:03.085Z,12.60
2023-03-30T02:50:33.273Z,12.46
2023-03-30T02:56:00.649Z,12.27
2023-03-30T03:01:35.316Z,12.10
2023-03-30T03:06:46.214Z,12.09
2023-03-30T03:11:48.010Z,12.08
2023-03-30T03:16:49.902Z,12.05
2023-03-30T03:21:53.254Z,12.07
2023-03-30T03:26:55.663Z,12.04
2023-03-30T03:31:59.195Z,11.96
2023-03-30T03:37:06.350Z,11.85
2023-03-30T03:42:09.406Z,11.77
2023-03-30T03:47:19.732Z,11.70
2023-03-30T03:52:21.925Z,11.62
2023-03-30T03:57:24.502Z,11.51
2023-03-30T04:02:27.891Z,11.42
2023-03-30T04:07:31.060Z,11.29
2023-03-30T04:12:33.559Z,11.27
2023-03-30T04:18:08.777Z,11.21
2023-03-30T04:23:35.351Z,11.23
2023-03-30T04:29:04.996Z,11.07
2023-03-30T04:34:31.182Z,11.02
2023-03-30T04:39:54.120Z,11.04
2023-03-30T04:45:14.764Z,11.05
2023-03-30T04:50:35.041Z,11.07
2023-03-30T04:56:09.148Z,11.89
2023-03-30T05:01:17.579Z,12.68
2023-03-30T05:06:42.155Z,13.16
2023-03-30T05:11:59.476Z,13.51
2023-03-30T05:17:16.648Z,13.76
2023-03-30T05:22:33.024Z,14.02
2023-03-30T05:27:53.632Z,14.21
2023-03-30T05:33:18.254Z,14.41
2023-03-30T05:38:36.141Z,14.54
2023-03-30T05:44:07.253Z,14.62
2023-03-30T05:49:27.233Z,14.68
2023-03-30T05:54:58.669Z,14.71
2023-03-30T06:00:23.849Z,14.80
2023-03-30T06:05:43.639Z,14.92
2023-03-30T06:10:53.382Z,15.03
2023-03-30T06:15:55.482Z,15.09
2023-03-30T06:21:03.093Z,15.14
2023-03-30T06:26:07.815Z,15.31
2023-03-30T06:31:12.295Z,15.52
2023-03-30T06:36:17.640Z,15.70
2023-03-30T06:41:22.112Z,15.80
2023-03-30T06:46:26.173Z,15.86
2023-03-30T06:51:29.877Z,15.94
2023-03-30T06:56:34.142Z,15.96
2023-03-30T07:01:45.325Z,15.97
2023-03-30T07:06:59.771Z,15.97
2023-03-30T07:12:01.558Z,15.93
2023-03-30T07:17:04.156Z,15.97
2023-03-30T07:22:06.118Z,16.21
2023-03-30T07:27:07.932Z,16.38
2023-03-30T07:32:11.302Z,16.52
2023-03-30T07:37:20.288Z,16.76
2023-03-30T07:42:24.213Z,17.00
2023-03-30T07:47:27.475Z,17.19
2023-03-30T07:52:29.553Z,17.25
2023-03-30T07:57:36.085Z,17.51
2023-03-30T08:02:38.402Z,17.66
2023-03-30T08:07:43.159Z,17.76
2023-03-30T08:12:51.879Z,17.85
2023-03-30T08:17:54.011Z,17.93
2023-03-30T08:22:55.901Z,18.02
2023-03-30T08:27:57.668Z,18.08
2023-03-30T08:32:59.545Z,18.14
2023-03-30T08:38:01.356Z,18.36
2023-03-30T08:43:25.883Z,18.71
2023-03-30T08:48:31.879Z,18.86
2023-03-30T08:53:34.769Z,18.86
2023-03-30T08:58:43.279Z,18.83
2023-03-30T09:04:12.932Z,18.65
2023-03-30T09:09:30.106Z,18.50
2023-03-30T09:14:42.909Z,18.38
2023-03-30T09:19:57.336Z,18.27
2023-03-30T09:24:59.528Z,18.15
2023-03-30T09:30:14.107Z,18.05
2023-03-30T09:35:21.879Z,17.94
2023-03-30T09:40:54.302Z,17.82
2023-03-30T09:45:58.011Z,17.57
2023-03-30T09:50:59.870Z,17.40
2023-03-30T09:56:19.448Z,17.22
2023-03-30T10:01:24.294Z,17.07
2023-03-30T10:06:26.186Z,16.91
2023-03-30T10:11:49.618Z,16.62
2023-03-30T10:16:51.709Z,16.37
2023-03-30T10:21:55.799Z,16.12
2023-03-30T10:27:03.261Z,15.95
2023-03-30T10:32:16.709Z,15.82
2023-03-30T10:37:27.098Z,15.69
2023-03-30T10:42:31.913Z,15.64
2023-03-30T10:48:07.405Z,15.54
2023-03-30T10:53:12.342Z,15.47
2023-03-30T10:58:29.380Z,15.45
2023-03-30T11:03:32.858Z,15.51
2023-03-30T11:08:42.350Z,15.57
2023-03-30T11:14:04.552Z,15.67
2023-03-30T11:19:26.296Z,15.83
2023-03-30T11:24:28.898Z,15.96
2023-03-30T11:29:38.230Z,16.10
2023-03-30T11:35:01.296Z,16.20
2023-03-30T11:40:21.479Z,16.26
2023-03-30T11:45:51.065Z,16.31
2023-03-30T11:51:01.857Z,16.46
2023-03-30T11:56:31.822Z,16.67
2023-03-30T12:01:54.861Z,17.12
2023-03-30T12:07:01.816Z,17.56
2023-03-30T12:12:12.153Z,17.98
2023-03-30T12:17:26.848Z,18.20
2023-03-30T12:22:47.655Z,18.15
2023-03-30T12:28:12.864Z,18.15
2023-03-30T12:33:20.779Z,18.19
2023-03-30T12:38:25.759Z,18.45
2023-03-30T12:43:48.877Z,18.59
2023-03-30T12:49:06.245Z,18.78
2023-03-30T12:54:38.021Z,18.84
2023-03-30T13:00:01.390Z,18.95
2023-03-30T13:05:16.426Z,19.06
2023-03-30T13:10:30.720Z,19.39
2023-03-30T13:15:41.560Z,19.40
2023-03-30T13:20:46.249Z,19.28
2023-03-30T13:26:02.764Z,19.48
2023-03-30T13:31:35.477Z,19.32
2023-03-30T13:37:00.918Z,19.02
2023-03-30T13:42:27.620Z,18.85
2023-03-30T13:47:50.724Z,18.77
2023-03-30T13:52:53.968Z,18.70
2023-03-30T13:58:03.576Z,18.70
2023-03-30T14:03:27.547Z,18.77
2023-03-30T14:08:34.350Z,18.91
2023-03-30T14:13:37.677Z,19.23
2023-03-30T14:18:39.529Z,19.36
2023-03-30T14:23:45.548Z,19.53
2023-03-30T14:28:47.584Z,19.75
2023-03-30T14:33:49.662Z,19.86
2023-03-30T14:38:53.887Z,19.93
2023-03-30T14:43:55.595Z,19.87
2023-03-30T14:48:57.946Z,19.61
2023-03-30T14:54:00.335Z,19.55
2023-03-30T14:59:02.956Z,19.54
2023-03-30T15:04:14.161Z,19.40
2023-03-30T15:09:18.649Z,19.17
2023-03-30T15:14:22.747Z,18.93
2023-03-30T15:19:30.271Z,18.73
2023-03-30T15:24:36.454Z,18.18
2023-03-30T15:29:40.406Z,17.54
2023-03-30T15:35:16.449Z,17.50
2023-03-30T15:40:30.380Z,17.54
2023-03-30T15:45:36.710Z,17.69
2023-03-30T15:50:39.202Z,17.79
2023-03-30T15:55:41.507Z,17.79
2023-03-30T16:00:44.646Z,17.35
2023-03-30T16:05:46.451Z,16.19
2023-03-30T16:10:48.854Z,15.13
2023-03-30T16:15:51.687Z,14.46
2023-03-30T16:20:53.537Z,14.11
2023-03-30T16:25:55.358Z,13.90
2023-03-30T16:31:02.919Z,13.74
2023-03-30T16:36:05.579Z,13.67
2023-03-30T16:41:17.425Z,13.67
2023-03-30T16:46:20.766Z,13.63
2023-03-30T16:51:24.391Z,13.61
2023-03-30T16:56:26.471Z,13.64
2023-03-30T17:01:30.200Z,13.65
2023-03-30T17:06:32.602Z,13.57
2023-03-30T17:11:34.753Z,13.55
2023-03-30T17:16:36.977Z,13.54
2023-03-30T17:21:40.867Z,13.53
2023-03-30T17:26:43.354Z,13.39
2023-03-30T17:31:46.012Z,13.41
2023-03-30T17:36:47.958Z,13.37
2023-03-30T17:41:49.697Z,13.35
2023-03-30T17:46:51.474Z,13.36
2023-03-30T17:51:53.946Z,13.38
2023-03-30T17:56:55.764Z,13.39
2023-03-30T18:01:57.715Z,13.38
2023-03-30T18:06:59.497Z,13.27
2023-03-30T18:12:01.265Z,13.19
2023-03-30T18:17:06.810Z,13.14
2023-03-30T18:22:09.440Z,13.13
2023-03-30T18:27:11.518Z,13.04
2023-03-30T18:32:13.782Z,12.98
2023-03-30T18:37:16.025Z,12.94
2023-03-30T18:42:17.828Z,12.95
2023-03-30T18:47:19.844Z,12.92
2023-03-30T18:52:21.818Z,12.97
2023-03-30T18:57:24.352Z,13.01
2023-03-30T19:02:26.588Z,12.95
2023-03-30T19:07:29.114Z,12.88
2023-03-30T19:12:31.680Z,12.82
2023-03-30T19:17:34.312Z,12.82
2023-03-30T19:22:36.392Z,12.85
2023-03-30T19:27:40.952Z,12.85
2023-03-30T19:32:50.620Z,12.89
2023-03-30T19:37:52.645Z,12.84
2023-03-30T19:42:54.426Z,12.80
2023-03-30T19:47:56.387Z,12.82
2023-03-30T19:52:58.284Z,12.73
2023-03-30T19:58:00.451Z,12.71
2023-03-30T20:03:02.819Z,12.75
2023-03-30T20:08:13.727Z,12.81
2023-03-30T20:13:25.007Z,12.84
2023-03-30T20:18:26.791Z,12.86
2023-03-30T20:23:28.582Z,12.83
2023-03-30T20:28:31.580Z,12.82
2023-03-30T20:33:33.726Z,12.78
2023-03-30T20:38:39.634Z,12.75
2023-03-30T20:43:56.218Z,12.72
2023-03-30T20:49:02.000Z,12.72
2023-03-30T20:54:07.574Z,12.78
2023-03-30T20:59:09.902Z,12.74
2023-03-30T21:04:11.837Z,12.70
2023-03-30T21:09:13.872Z,12.68
2023-03-30T21:14:15.968Z,12.65
2023-03-30T21:19:17.742Z,12.60
2023-03-30T21:24:19.589Z,12.64
2023-03-30T21:29:22.124Z,12.68
2023-03-30T21:34:23.907Z,12.63
2023-03-30T21:39:25.782Z,12.58
2023-03-30T21:44:27.680Z,12.60
2023-03-30T21:49:29.469Z,12.63
2023-03-30T21:54:31.318Z,12.62
2023-03-30T21:59:33.139Z,12.59
2023-03-30T22:04:34.920Z,12.59
2023-03-30T22:09:36.879Z,12.64
2023-03-30T22:14:38.662Z,12.74
2023-03-30T22:19:40.603Z,12.82
2023-03-30T22:24:42.350Z,12.84
2023-03-30T22:29:44.093Z,12.92
2023-03-30T22:34:47.355Z,12.80
2023-03-30T22:39:49.303Z,12.82
2023-03-30T22:44:51.701Z,12.80
2023-03-30T22:49:53.461Z,12.81
2023-03-30T22:54:55.277Z,12.84
2023-03-30T22:59:57.008Z,12.79
2023-03-30T23:04:58.767Z,12.76
2023-03-30T23:10:03.826Z,12.73
2023-03-30T23:15:05.870Z,12.72
2023-03-30T23:20:10.569Z,12.75
2023-03-30T23:25:12.454Z,12.79
2023-03-30T23:30:14.705Z,12.84
2023-03-30T23:35:16.592Z,12.87
2023-03-30T23:40:18.385Z,12.86
2023-03-30T23:45:20.381Z,12.90
2023-03-30T23:50:22.132Z,12.94
2023-03-30T23:55:24.613Z,13.01
